createdAt,value
2018-01-20T00:00:04.844Z,10.80
2018-01-20T00:02:33.570Z,10.57
2018-01-20T00:05:02.496Z,11.32
2018-01-20T00:07:31.336Z,11.32
2018-01-20T00:10:29.545Z,10.13
2018-01-20T00:12:58.021Z,9.25
2018-01-20T00:15:26.504Z,9.80
2018-01-20T00:17:59.941Z,10.25
2018-01-20T00:20:28.419Z,9.80
2018-01-20T00:23:00.379Z,11.12
2018-01-20T00:25:29.071Z,10.20
2018-01-20T00:27:58.165Z,11.23
2018-01-20T00:30:27.569Z,11.25
2018-01-20T00:32:56.099Z,11.05
2018-01-20T00:35:25.351Z,10.07
2018-01-20T00:37:53.832Z,11.30
2018-01-20T00:40:22.620Z,11.32
2018-01-20T00:42:51.129Z,10.75
2018-01-20T00:45:19.588Z,10.95
2018-01-20T00:47:48.092Z,10.50
2018-01-20T00:50:16.856Z,11.40
2018-01-20T00:52:45.337Z,9.57
2018-01-20T00:55:13.811Z,10.50
2018-01-20T00:57:42.309Z,9.90
2018-01-20T01:00:10.780Z,10.43
2018-01-20T01:02:39.433Z,9.75
2018-01-20T01:05:08.337Z,9.23
2018-01-20T01:07:36.976Z,9.35
2018-01-20T01:10:06.593Z,10.40
2018-01-20T01:12:35.841Z,9.27
2018-01-20T01:15:04.828Z,7.95
2018-01-20T01:17:33.383Z,9.35
2018-01-20T01:20:02.213Z,8.07
2018-01-20T01:22:30.787Z,11.00
2018-01-20T01:24:59.485Z,7.82
2018-01-20T01:27:27.956Z,9.05
2018-01-20T01:29:56.454Z,8.00
2018-01-20T01:32:24.938Z,8.95
2018-01-20T01:34:53.790Z,10.20
2018-01-20T01:37:22.274Z,9.70
2018-01-20T01:39:50.818Z,12.30
2018-01-20T01:42:19.321Z,13.38
2018-01-20T01:44:48.100Z,13.13
2018-01-20T01:47:17.549Z,13.25
2018-01-20T01:49:46.140Z,16.02
2018-01-20T01:52:14.581Z,15.80
2018-01-20T01:54:43.058Z,15.85
2018-01-20T01:57:12.490Z,17.30
2018-01-20T01:59:41.248Z,15.82
2018-01-20T02:02:09.722Z,17.12
2018-01-20T02:04:38.440Z,18.60
2018-01-20T02:07:06.925Z,16.98
2018-01-20T02:09:35.376Z,17.55
2018-01-20T02:12:03.908Z,19.20
2018-01-20T02:14:32.381Z,17.87
2018-01-20T02:17:01.075Z,19.83
2018-01-20T02:19:29.818Z,18.02
2018-01-20T02:21:58.550Z,18.40
2018-01-20T02:24:27.236Z,20.77
2018-01-20T02:26:55.973Z,19.25
2018-01-20T02:29:25.428Z,20.15
2018-01-20T02:31:54.032Z,18.77
2018-01-20T02:34:22.473Z,18.60
2018-01-20T02:36:51.104Z,18.70
2018-01-20T02:39:19.604Z,17.58
2018-01-20T02:41:48.797Z,20.48
2018-01-20T02:44:17.292Z,18.10
2018-01-20T02:46:46.001Z,18.00
2018-01-20T02:49:14.572Z,20.42
2018-01-20T02:51:43.436Z,21.25
2018-01-20T02:54:12.188Z,18.30
2018-01-20T02:56:40.897Z,18.62
2018-01-20T02:59:09.763Z,18.15
2018-01-20T03:01:38.251Z,18.73
2018-01-20T03:04:07.115Z,18.08
2018-01-20T03:06:36.436Z,18.98
2018-01-20T03:09:05.654Z,20.70
2018-01-20T03:11:34.253Z,19.42
2018-01-20T03:14:02.888Z,18.35
2018-01-20T03:16:31.429Z,20.20
2018-01-20T03:19:00.625Z,19.87
2018-01-20T03:21:29.119Z,20.98
2018-01-20T03:23:57.600Z,17.23
2018-01-20T03:26:26.061Z,18.83
2018-01-20T03:28:55.200Z,18.73
2018-01-20T03:31:23.741Z,18.35
2018-01-20T03:33:52.599Z,19.95
2018-01-20T03:36:21.286Z,19.37
2018-01-20T03:38:49.756Z,18.10
2018-01-20T03:41:18.217Z,19.65
2018-01-20T03:43:46.652Z,17.23
2018-01-20T03:46:16.664Z,18.67
2018-01-20T03:48:46.216Z,19.80
2018-01-20T03:51:14.734Z,18.77
2018-01-20T03:53:43.623Z,19.65
2018-01-20T03:56:12.137Z,19.17
2018-01-20T03:58:40.764Z,19.23
2018-01-20T04:01:09.305Z,18.87
2018-01-20T04:03:38.189Z,17.00
2018-01-20T04:06:06.869Z,17.00
2018-01-20T04:08:36.130Z,18.50
2018-01-20T04:11:04.912Z,17.25
2018-01-20T04:13:33.600Z,16.05
2018-01-20T04:16:02.311Z,17.08
2018-01-20T04:18:30.756Z,15.75
2018-01-20T04:20:59.460Z,19.10
2018-01-20T04:23:27.907Z,17.08
2018-01-20T04:25:56.400Z,16.60
2018-01-20T04:28:25.144Z,18.10
2018-01-20T04:30:53.649Z,17.20
2018-01-20T04:33:22.957Z,17.23
2018-01-20T04:35:51.407Z,15.93
2018-01-20T04:38:19.889Z,19.42
2018-01-20T04:40:48.478Z,18.67
2018-01-20T04:43:17.412Z,16.45
2018-01-20T04:45:46.103Z,16.27
2018-01-20T04:48:14.934Z,17.73
2018-01-20T04:50:43.657Z,17.17
2018-01-20T04:53:13.124Z,15.00
2018-01-20T04:55:42.014Z,17.80
2018-01-20T04:58:10.704Z,16.77
2018-01-20T05:00:40.077Z,17.70
2018-01-20T05:03:08.545Z,17.33
2018-01-20T05:05:37.222Z,18.80
2018-01-20T05:08:06.843Z,18.20
2018-01-20T05:10:35.619Z,18.37
2018-01-20T05:13:04.430Z,17.45
2018-01-20T05:15:33.145Z,18.45
2018-01-20T05:18:01.734Z,16.30
2018-01-20T05:20:30.209Z,18.42
2018-01-20T05:22:59.560Z,17.98
2018-01-20T05:25:28.026Z,18.90
2018-01-20T05:27:57.241Z,19.40
2018-01-20T05:30:26.097Z,18.58
2018-01-20T05:32:56.124Z,17.40
2018-01-20T05:35:25.616Z,17.70
2018-01-20T05:37:55.140Z,17.70
2018-01-20T05:40:24.416Z,18.25
2018-01-20T05:42:52.904Z,17.62
2018-01-20T05:45:21.377Z,17.50
2018-01-20T05:47:50.714Z,17.35
2018-01-20T05:50:19.953Z,19.50
2018-01-20T05:52:48.464Z,19.20
2018-01-20T05:55:18.437Z,16.90
2018-01-20T05:57:47.135Z,16.20
2018-01-20T06:00:16.037Z,18.20
2018-01-20T06:02:44.726Z,16.95
2018-01-20T06:05:13.406Z,18.83
2018-01-20T06:07:42.183Z,17.37
2018-01-20T06:10:10.682Z,17.05
2018-01-20T06:12:39.368Z,16.90
2018-01-20T06:15:07.953Z,18.65
2018-01-20T06:17:36.424Z,18.83
2018-01-20T06:20:05.121Z,17.42
2018-01-20T06:22:33.990Z,17.40
2018-01-20T06:25:02.697Z,17.52
2018-01-20T06:27:31.777Z,17.65
2018-01-20T06:30:00.464Z,17.98
2018-01-20T06:32:29.104Z,17.67
2018-01-20T06:34:58.552Z,14.90
2018-01-20T06:37:27.256Z,15.65
2018-01-20T06:39:55.917Z,17.05
2018-01-20T06:42:24.413Z,16.60
2018-01-20T06:44:53.212Z,16.85
2018-01-20T06:47:21.692Z,15.82
2018-01-20T06:49:50.175Z,15.88
2018-01-20T06:52:19.374Z,17.50
2018-01-20T06:54:48.059Z,18.02
2018-01-20T06:57:16.718Z,17.52
2018-01-20T06:59:45.305Z,17.15
2018-01-20T07:02:13.788Z,16.48
2018-01-20T07:04:43.328Z,16.70
2018-01-20T07:07:13.332Z,15.77
2018-01-20T07:09:41.820Z,16.00
2018-01-20T07:12:10.281Z,17.33
2018-01-20T07:14:39.165Z,16.27
2018-01-20T07:17:07.744Z,18.20
2018-01-20T07:19:36.226Z,17.20
2018-01-20T07:22:04.702Z,16.92
2018-01-20T07:24:34.342Z,17.55
2018-01-20T07:27:03.628Z,16.30
2018-01-20T07:29:32.534Z,16.48
2018-01-20T07:32:00.961Z,16.95
2018-01-20T07:34:29.517Z,16.67
2018-01-20T07:36:58.943Z,15.85
2018-01-20T07:39:28.405Z,16.02
2018-01-20T07:41:56.977Z,14.97
2018-01-20T07:44:25.545Z,15.60
2018-01-20T07:46:54.261Z,15.27
2018-01-20T07:49:23.245Z,15.10
2018-01-20T07:51:52.012Z,15.93
2018-01-20T07:54:20.517Z,15.27
2018-01-20T07:56:48.960Z,16.87
2018-01-20T07:59:17.444Z,15.43
2018-01-20T08:01:46.050Z,16.95
2018-01-20T08:04:14.504Z,17.58
2018-01-20T08:06:43.001Z,16.90
2018-01-20T08:09:11.475Z,17.08
2018-01-20T08:11:39.952Z,17.30
2018-01-20T08:14:08.516Z,15.73
2018-01-20T08:16:36.977Z,15.23
2018-01-20T08:19:05.476Z,16.60
2018-01-20T08:21:34.688Z,16.58
2018-01-20T08:24:03.257Z,15.23
2018-01-20T08:26:32.961Z,16.20
2018-01-20T08:29:01.463Z,16.08
2018-01-20T08:31:30.100Z,17.30
2018-01-20T08:33:58.622Z,16.62
2018-01-20T08:36:27.138Z,16.77
2018-01-20T08:38:55.621Z,16.37
2018-01-20T08:41:24.089Z,15.35
2018-01-20T08:43:52.548Z,17.00
2018-01-20T08:46:21.016Z,19.23
2018-01-20T08:48:50.391Z,16.03
2018-01-20T08:51:19.465Z,17.63
2018-01-20T08:53:47.968Z,16.77
2018-01-20T08:56:16.633Z,14.33
2018-01-20T08:58:45.279Z,16.50
2018-01-20T09:01:13.880Z,15.50
2018-01-20T09:03:42.343Z,16.90
2018-01-20T09:06:12.018Z,16.05
2018-01-20T09:08:41.217Z,18.70
2018-01-20T09:11:09.779Z,15.00
2018-01-20T09:13:38.245Z,14.57
2018-01-20T09:16:06.801Z,14.70
2018-01-20T09:18:36.271Z,14.67
2018-01-20T09:21:04.861Z,13.23
2018-01-20T09:23:33.387Z,14.37
2018-01-20T09:26:02.341Z,12.53
2018-01-20T09:28:30.837Z,15.00
2018-01-20T09:30:59.388Z,13.97
2018-01-20T09:33:27.853Z,15.20
2018-01-20T09:35:56.532Z,13.23
2018-01-20T09:38:25.080Z,11.73
2018-01-20T09:40:54.373Z,13.13
2018-01-20T09:43:23.020Z,12.40
2018-01-20T09:45:51.783Z,11.23
2018-01-20T09:48:20.590Z,11.27
2018-01-20T09:50:49.116Z,11.73
2018-01-20T09:53:17.596Z,12.87
2018-01-20T09:55:46.250Z,13.80
2018-01-20T09:58:14.937Z,12.73
2018-01-20T10:00:44.074Z,13.43
2018-01-20T10:03:12.553Z,10.40
2018-01-20T10:05:41.748Z,12.20
2018-01-20T10:08:10.201Z,11.60
2018-01-20T10:10:38.956Z,11.37
2018-01-20T10:13:07.640Z,12.30
2018-01-20T10:15:37.096Z,10.73
2018-01-20T10:18:06.937Z,12.77
2018-01-20T10:20:36.367Z,12.10
2018-01-20T10:23:05.076Z,11.53
2018-01-20T10:25:33.556Z,12.57
2018-01-20T10:28:02.229Z,13.20
2018-01-20T10:30:31.001Z,13.00
2018-01-20T10:32:59.460Z,13.13
2018-01-20T10:35:28.709Z,11.13
2018-01-20T10:37:57.816Z,13.73
2018-01-20T10:40:27.204Z,12.40
2018-01-20T10:42:56.036Z,13.00
2018-01-20T10:45:24.836Z,11.77
2018-01-20T10:47:54.065Z,12.93
2018-01-20T10:50:22.751Z,13.63
2018-01-20T10:52:51.184Z,13.23
2018-01-20T10:55:19.649Z,13.73
2018-01-20T10:57:48.368Z,12.27
2018-01-20T11:00:18.050Z,11.93
2018-01-20T11:02:46.520Z,11.37
2018-01-20T11:05:15.010Z,13.20
2018-01-20T11:07:43.436Z,13.33
2018-01-20T11:10:12.243Z,12.33
2018-01-20T11:12:40.688Z,14.80
2018-01-20T11:15:10.036Z,13.80
2018-01-20T11:17:38.497Z,12.83
2018-01-20T11:20:06.971Z,14.00
2018-01-20T11:22:35.802Z,14.03
2018-01-20T11:25:04.522Z,13.97
2018-01-20T11:27:34.402Z,12.73
2018-01-20T11:30:02.959Z,12.70
2018-01-20T11:32:31.805Z,14.57
2018-01-20T11:35:00.257Z,14.13
2018-01-20T11:37:28.713Z,12.53
2018-01-20T11:39:57.189Z,13.67
2018-01-20T11:42:26.039Z,14.00
2018-01-20T11:44:54.881Z,12.40
2018-01-20T11:47:23.356Z,13.40
2018-01-20T11:49:51.940Z,14.80
2018-01-20T11:52:20.523Z,12.80
2018-01-20T11:54:49.021Z,13.70
2018-01-20T11:57:17.495Z,15.00
2018-01-20T11:59:46.282Z,13.50
2018-01-20T12:02:14.840Z,14.13
2018-01-20T12:04:43.385Z,15.27
2018-01-20T12:07:12.492Z,15.30
2018-01-20T12:09:41.389Z,13.50
2018-01-20T12:12:11.339Z,13.40
2018-01-20T12:14:39.904Z,15.20
2018-01-20T12:17:09.340Z,12.63
2018-01-20T12:19:38.046Z,14.60
2018-01-20T12:22:06.717Z,14.03
2018-01-20T12:24:36.072Z,13.90
2018-01-20T12:27:04.832Z,13.93
2018-01-20T12:29:33.382Z,13.60
2018-01-20T12:32:01.993Z,14.23
2018-01-20T12:34:30.777Z,14.63
2018-01-20T12:36:59.319Z,14.63
2018-01-20T12:39:27.848Z,14.30
2018-01-20T12:41:56.529Z,15.30
2018-01-20T12:44:25.409Z,14.27
2018-01-20T12:46:53.959Z,15.00
2018-01-20T12:49:23.600Z,15.30
2018-01-20T12:51:52.128Z,14.33
2018-01-20T12:54:22.119Z,13.03
2018-01-20T12:56:50.668Z,13.03
2018-01-20T12:59:19.253Z,13.80
2018-01-20T13:01:48.772Z,14.50
2018-01-20T13:04:40.076Z,13.80
2018-01-20T13:07:08.861Z,11.10
2018-01-20T13:09:37.344Z,13.17
2018-01-20T13:12:05.928Z,12.20
2018-01-20T13:14:34.410Z,12.90
2018-01-20T13:17:03.120Z,11.93
2018-01-20T13:19:31.590Z,11.83
2018-01-20T13:22:00.185Z,12.27
2018-01-20T13:24:29.286Z,11.83
2018-01-20T13:26:57.793Z,13.27
2018-01-20T13:29:26.556Z,14.03
2018-01-20T13:31:55.049Z,13.80
2018-01-20T13:34:23.573Z,12.80
2018-01-20T13:36:52.800Z,14.70
2018-01-20T13:39:21.342Z,14.33
2018-01-20T13:41:50.808Z,15.87
2018-01-20T13:44:19.296Z,14.10
2018-01-20T13:46:47.780Z,16.07
2018-01-20T13:49:16.517Z,17.13
2018-01-20T13:51:45.712Z,16.30
2018-01-20T13:54:14.174Z,26.20
2018-01-20T13:56:42.894Z,16.90
2018-01-20T13:59:11.406Z,17.00
2018-01-20T14:01:40.094Z,15.20
2018-01-20T14:04:08.761Z,14.37
2018-01-20T14:06:37.350Z,14.50
2018-01-20T14:09:06.665Z,15.60
2018-01-20T14:11:35.130Z,14.60
2018-01-20T14:14:03.703Z,14.47
2018-01-20T14:16:32.162Z,15.20
2018-01-20T14:19:01.413Z,14.60
2018-01-20T14:21:29.945Z,15.50
2018-01-20T14:23:59.263Z,16.20
2018-01-20T14:26:27.737Z,16.30
2018-01-20T14:28:56.259Z,14.87
2018-01-20T14:31:24.945Z,14.73
2018-01-20T14:33:54.143Z,14.00
2018-01-20T14:36:22.594Z,16.70
2018-01-20T14:38:52.592Z,15.10
2018-01-20T14:41:21.774Z,17.10
2018-01-20T14:43:50.397Z,15.50
2018-01-20T14:46:19.622Z,15.20
2018-01-20T14:48:48.090Z,15.57
2018-01-20T14:51:16.752Z,15.80
2018-01-20T14:53:45.273Z,15.90
2018-01-20T14:56:13.853Z,16.53
2018-01-20T14:58:42.909Z,15.83
2018-01-20T15:01:11.385Z,15.00
2018-01-20T15:03:40.120Z,16.13
2018-01-20T15:06:08.633Z,17.13
2018-01-20T15:08:38.653Z,17.40
2018-01-20T15:11:07.394Z,15.43
2018-01-20T15:13:35.896Z,16.43
2018-01-20T15:16:04.620Z,16.57
2018-01-20T15:18:33.877Z,15.53
2018-01-20T15:21:02.444Z,15.47
2018-01-20T15:23:30.924Z,15.10
2018-01-20T15:25:59.549Z,16.47
2018-01-20T15:28:28.757Z,14.83
2018-01-20T15:30:57.236Z,16.50
2018-01-20T15:33:25.712Z,16.53
2018-01-20T15:35:54.355Z,14.70
2018-01-20T15:38:23.036Z,17.87
2018-01-20T15:40:52.463Z,18.57
2018-01-20T15:43:20.948Z,17.63
2018-01-20T15:45:49.477Z,17.00
2018-01-20T15:48:18.688Z,15.40
2018-01-20T15:50:47.493Z,16.33
2018-01-20T15:53:15.973Z,17.43
2018-01-20T15:55:44.452Z,14.80
2018-01-20T15:58:13.216Z,17.40
2018-01-20T16:00:42.677Z,17.50
2018-01-20T16:03:11.363Z,19.30
2018-01-20T16:05:40.668Z,18.00
2018-01-20T16:08:09.145Z,18.30
2018-01-20T16:10:38.533Z,19.97
2018-01-20T16:13:07.032Z,17.23
2018-01-20T16:15:35.512Z,17.47
2018-01-20T16:18:04.114Z,17.83
2018-01-20T16:20:32.997Z,19.57
2018-01-20T16:23:01.487Z,18.50
2018-01-20T16:25:29.947Z,17.30
2018-01-20T16:27:58.384Z,17.50
2018-01-20T16:30:27.898Z,17.20
2018-01-20T16:32:56.372Z,16.67
2018-01-20T16:35:24.857Z,17.83
2018-01-20T16:37:53.340Z,15.90
2018-01-20T16:40:21.872Z,15.70
2018-01-20T16:42:50.426Z,16.87
2018-01-20T16:45:19.132Z,15.53
2018-01-20T16:47:47.606Z,18.27
2018-01-20T16:50:16.072Z,15.10
2018-01-20T16:52:44.682Z,16.50
2018-01-20T16:55:13.337Z,16.97
2018-01-20T16:57:41.845Z,17.23
2018-01-20T17:00:10.838Z,16.43
2018-01-20T17:02:39.322Z,16.63
2018-01-20T17:05:08.012Z,19.60
2018-01-20T17:07:36.676Z,25.13
2018-01-20T17:10:05.168Z,27.60
2018-01-20T17:12:33.859Z,22.57
2018-01-20T17:15:02.338Z,19.07
2018-01-20T17:17:30.844Z,19.40
2018-01-20T17:20:00.834Z,17.63
2018-01-20T17:22:29.369Z,16.00
2018-01-20T17:24:59.032Z,16.83
2018-01-20T17:27:27.496Z,15.73
2018-01-20T17:29:56.038Z,15.40
2018-01-20T17:32:25.322Z,15.53
2018-01-20T17:34:53.982Z,18.00
2018-01-20T17:37:22.647Z,18.93
2018-01-20T17:39:51.151Z,19.53
2018-01-20T17:42:20.406Z,18.10
2018-01-20T17:44:48.896Z,21.77
2018-01-20T17:47:17.501Z,19.17
2018-01-20T17:49:46.194Z,20.27
2018-01-20T17:52:14.892Z,18.37
2018-01-20T17:54:43.514Z,17.03
2018-01-20T17:57:12.876Z,17.50
2018-01-20T17:59:41.383Z,19.30
2018-01-20T18:02:09.897Z,17.83
2018-01-20T18:04:39.107Z,16.87
2018-01-20T18:07:07.598Z,18.13
2018-01-20T18:09:36.077Z,18.07
2018-01-20T18:12:04.874Z,24.10
2018-01-20T18:14:33.958Z,22.47
2018-01-20T18:17:02.502Z,18.27
2018-01-20T18:19:30.957Z,17.37
2018-01-20T18:21:59.512Z,16.27
2018-01-20T18:24:27.988Z,17.33
2018-01-20T18:26:56.449Z,16.43
2018-01-20T18:29:25.253Z,18.47
2018-01-20T18:31:53.756Z,16.93
2018-01-20T18:34:22.272Z,16.87
2018-01-20T18:36:50.821Z,16.53
2018-01-20T18:39:20.139Z,18.07
2018-01-20T18:41:48.585Z,17.40
2018-01-20T18:44:17.187Z,18.93
2018-01-20T18:46:45.869Z,17.47
2018-01-20T18:49:14.410Z,18.67
2018-01-20T18:51:43.057Z,19.10
2018-01-20T18:54:12.136Z,19.13
2018-01-20T18:56:40.838Z,17.83
2018-01-20T18:59:09.705Z,16.63
2018-01-20T19:01:38.181Z,15.87
2018-01-20T19:04:06.644Z,18.30
2018-01-20T19:06:35.141Z,17.27
2018-01-20T19:09:04.697Z,19.07
2018-01-20T19:11:33.456Z,19.23
2018-01-20T19:14:02.137Z,19.60
2018-01-20T19:16:30.826Z,19.00
2018-01-20T19:18:59.331Z,17.70
2018-01-20T19:21:27.848Z,17.67
2018-01-20T19:23:57.312Z,18.73
2018-01-20T19:26:25.821Z,17.47
2018-01-20T19:28:55.764Z,20.10
2018-01-20T19:31:24.700Z,17.42
2018-01-20T19:33:53.261Z,18.00
2018-01-20T19:36:22.482Z,16.23
2018-01-20T19:38:51.177Z,19.20
2018-01-20T19:41:19.857Z,17.77
2018-01-20T19:43:48.517Z,17.52
2018-01-20T19:46:16.997Z,18.57
2018-01-20T19:48:46.015Z,18.20
2018-01-20T19:51:14.704Z,17.50
2018-01-20T19:53:43.179Z,19.20
2018-01-20T19:58:55.270Z,19.87
2018-01-20T20:01:23.753Z,18.90
2018-01-20T20:03:52.268Z,18.90
2018-01-20T20:06:20.734Z,21.03
2018-01-20T20:08:50.185Z,18.80
2018-01-20T20:11:18.673Z,18.90
2018-01-20T20:13:47.151Z,18.20
2018-01-20T20:16:15.910Z,18.30
2018-01-20T20:18:44.428Z,18.00
2018-01-20T20:21:13.686Z,19.40
2018-01-20T20:23:42.178Z,17.80
2018-01-20T20:26:10.751Z,18.03
2018-01-20T20:28:39.438Z,17.55
2018-01-20T20:31:08.124Z,19.48
2018-01-20T20:33:36.791Z,17.97
2018-01-20T20:36:05.757Z,17.42
2018-01-20T20:38:34.786Z,17.83
2018-01-20T20:41:03.312Z,21.52
2018-01-20T20:43:31.947Z,22.02
2018-01-20T20:46:00.480Z,20.92
2018-01-20T20:48:30.451Z,19.05
2018-01-20T20:50:59.065Z,20.00
2018-01-20T20:53:27.635Z,19.45
2018-01-20T20:55:56.321Z,19.37
2018-01-20T20:58:24.800Z,19.92
2018-01-20T21:00:54.102Z,19.92
2018-01-20T21:03:23.172Z,19.50
2018-01-20T21:05:51.966Z,19.52
2018-01-20T21:08:20.432Z,22.55
2018-01-20T21:10:49.139Z,19.58
2018-01-20T21:13:17.681Z,19.48
2018-01-20T21:15:47.001Z,21.17
2018-01-20T21:18:15.627Z,20.80
2018-01-20T21:20:44.113Z,20.00
2018-01-20T21:23:12.781Z,20.62
2018-01-20T21:25:41.313Z,21.75
2018-01-20T21:28:10.975Z,21.50
2018-01-20T21:30:40.293Z,20.95
2018-01-20T21:33:08.790Z,21.35
2018-01-20T21:35:37.292Z,19.33
2018-01-20T21:38:06.528Z,20.00
2018-01-20T21:40:34.984Z,20.12
2018-01-20T21:43:03.753Z,19.48
2018-01-20T21:45:32.456Z,21.02
2018-01-20T21:48:01.519Z,18.50
2018-01-20T21:50:29.985Z,19.98
2018-01-20T21:52:58.649Z,18.20
2018-01-20T21:55:27.151Z,18.20
2018-01-20T21:57:55.638Z,18.23
2018-01-20T22:00:24.125Z,21.80
2018-01-20T22:02:52.799Z,20.27
2018-01-20T22:05:21.688Z,20.33
2018-01-20T22:07:50.765Z,19.40
2018-01-20T22:10:19.266Z,18.52
2018-01-20T22:12:47.946Z,19.62
2018-01-20T22:15:16.456Z,18.92
2018-01-20T22:17:45.110Z,19.45
2018-01-20T22:20:14.062Z,20.62
2018-01-20T22:22:43.310Z,19.35
2018-01-20T22:25:11.983Z,19.15
2018-01-20T22:27:40.673Z,19.45
2018-01-20T22:30:09.371Z,18.67
2018-01-20T22:32:38.109Z,19.52
2018-01-20T22:35:07.342Z,18.35
2018-01-20T22:37:35.839Z,19.83
2018-01-20T22:40:04.801Z,19.75
2018-01-20T22:42:33.604Z,18.50
2018-01-20T22:45:02.416Z,18.55
2018-01-20T22:47:30.983Z,19.77
2018-01-20T22:49:59.451Z,18.95
2018-01-20T22:52:27.958Z,19.10
2018-01-20T22:54:56.435Z,19.12
2018-01-20T22:57:25.108Z,19.95
2018-01-20T22:59:53.589Z,21.60
2018-01-20T23:02:22.296Z,18.25
2018-01-20T23:04:50.970Z,20.12
2018-01-20T23:07:19.654Z,18.95
2018-01-20T23:09:48.333Z,19.10
2018-01-20T23:12:16.820Z,19.50
2018-01-20T23:14:45.578Z,18.87
2018-01-20T23:17:14.876Z,19.15
2018-01-20T23:19:44.118Z,19.55
2018-01-20T23:22:13.649Z,19.58
2018-01-20T23:24:42.300Z,19.98
2018-01-20T23:27:10.773Z,18.00
2018-01-20T23:29:39.660Z,17.87
2018-01-20T23:32:08.358Z,20.50
2018-01-20T23:34:36.887Z,20.17
2018-01-20T23:37:05.521Z,19.40
2018-01-20T23:39:34.226Z,21.20
2018-01-20T23:42:03.120Z,20.50
2018-01-20T23:44:31.629Z,21.00
2018-01-20T23:47:00.285Z,23.42
2018-01-20T23:49:28.767Z,19.60
2018-01-20T23:51:57.216Z,20.95
2018-01-20T23:54:25.705Z,21.60
2018-01-20T23:56:54.590Z,20.75
2018-01-20T23:59:23.299Z,18.12
